Time;durP1;ratioP1;P1;durP2;ratioP2;P2;SDS_P1;SDS_P2;PMS_P1;PMS_P2;Temp;Humidity;BMP_temperature;BMP_pressure;BME280_temperature;BME280_humidity;BME280_pressure;Samples;Min_cycle;Max_cycle;Signal;HPM_P1;HPM_P2
2022/06/14 00:01:45;;;;;;;6.95;4.50;;;;;;;;;;5053781;28;20059;-68
2022/06/14 00:04:12;;;;;;;6.15;3.80;;;;;;;;;;5053620;28;20071;-68
2022/06/14 00:06:39;;;;;;;9.10;4.22;;;;;;;;;;5041168;28;20128;-68
2022/06/14 00:09:05;;;;;;;6.93;3.85;;;;;;;;;;5034215;28;20049;-68
2022/06/14 00:11:34;;;;;;;7.20;4.22;;;;;;;;;;5033707;28;20055;-68
2022/06/14 00:14:02;;;;;;;7.93;4.20;;;;;;;;;;5033587;28;20492;-68
2022/06/14 00:16:29;;;;;;;6.55;3.65;;;;;;;;;;5044532;28;20099;-68
2022/06/14 00:18:56;;;;;;;7.45;4.53;;;;;;;;;;5052312;28;20055;-68
2022/06/14 00:21:23;;;;;;;5.85;3.83;;;;;;;;;;5053501;28;20071;-68
2022/06/14 00:23:50;;;;;;;7.03;4.13;;;;;;;;;;5053248;28;20048;-69
2022/06/14 00:26:16;;;;;;;9.38;3.83;;;;;;;;;;5044392;28;20049;-68
2022/06/14 00:28:43;;;;;;;6.28;3.63;;;;;;;;;;5033495;28;20053;-68
2022/06/14 00:31:17;;;;;;;6.70;3.85;;;;;;;;;;5032985;28;20108;-68
2022/06/14 00:33:44;;;;;;;7.43;3.90;;;;;;;;;;5033409;28;20084;-68
2022/06/14 00:36:28;;;;;;;5.40;3.85;;;;;;;;;;5033552;28;20054;-68
2022/06/14 00:39:00;;;;;;;6.43;3.70;;;;;;;;;;5033155;28;20060;-68
2022/06/14 00:41:35;;;;;;;7.47;3.43;;;;;;;;;;5031816;28;20401;-68
2022/06/14 00:44:04;;;;;;;8.25;4.40;;;;;;;;;;5031952;28;20053;-68
2022/06/14 00:46:39;;;;;;;6.68;4.05;;;;;;;;;;5033201;28;20092;-68
2022/06/14 00:49:17;;;;;;;6.80;4.68;;;;;;;;;;5016152;28;20053;-68
2022/06/14 00:51:53;;;;;;;7.85;4.13;;;;;;;;;;5031687;28;20421;-68
2022/06/14 00:54:23;;;;;;;7.70;4.20;;;;;;;;;;5031620;28;20057;-68
2022/06/14 00:57:14;;;;;;;7.72;3.95;;;;;;;;;;5044468;28;20053;-68
2022/06/14 00:59:44;;;;;;;11.43;3.95;;;;;;;;;;5044137;28;20053;-68
2022/06/14 01:02:17;;;;;;;6.30;4.53;;;;;;;;;;5035169;28;20496;-68
2022/06/14 01:04:44;;;;;;;5.30;3.45;;;;;;;;;;5052491;28;20064;-68
2022/06/14 01:07:18;;;;;;;7.35;4.28;;;;;;;;;;5036212;28;20103;-68
2022/06/14 01:09:55;;;;;;;9.45;4.40;;;;;;;;;;5032703;28;20061;-68
2022/06/14 01:12:24;;;;;;;4.82;3.65;;;;;;;;;;5032474;28;20072;-68
2022/06/14 01:14:56;;;;;;;6.32;4.15;;;;;;;;;;5031218;28;20045;-68
2022/06/14 01:17:22;;;;;;;7.75;4.05;;;;;;;;;;5031849;28;20049;-68
2022/06/14 01:19:49;;;;;;;7.40;4.43;;;;;;;;;;5032641;28;20140;-68
2022/06/14 01:22:19;;;;;;;5.80;3.95;;;;;;;;;;5014707;28;20052;-68
2022/06/14 01:24:45;;;;;;;9.27;4.47;;;;;;;;;;5032149;28;20049;-68
2022/06/14 01:27:14;;;;;;;7.10;4.43;;;;;;;;;;5045512;28;20518;-68
2022/06/14 01:29:44;;;;;;;6.43;4.43;;;;;;;;;;5050919;28;20064;-68
2022/06/14 01:32:12;;;;;;;5.00;3.80;;;;;;;;;;5052898;28;20048;-68
2022/06/14 01:34:41;;;;;;;7.40;4.20;;;;;;;;;;5054317;28;20053;-68
2022/06/14 01:37:07;;;;;;;8.30;4.30;;;;;;;;;;5055561;28;20049;-69
2022/06/14 01:39:35;;;;;;;7.30;4.35;;;;;;;;;;5054062;28;20103;-69
2022/06/14 01:42:02;;;;;;;7.35;4.60;;;;;;;;;;5051909;28;20099;-68
2022/06/14 01:44:57;;;;;;;8.95;5.05;;;;;;;;;;5052224;28;20044;-68
2022/06/14 01:47:36;;;;;;;7.43;4.85;;;;;;;;;;5050233;28;20517;-68
2022/06/14 01:53:39;;;;;;;7.00;4.40;;;;;;;;;;5052060;28;20418;-68
2022/06/14 01:56:14;;;;;;;6.97;4.53;;;;;;;;;;5014669;28;20055;-68
2022/06/14 01:58:41;;;;;;;9.80;4.93;;;;;;;;;;5031950;28;20049;-68
2022/06/14 02:01:27;;;;;;;6.88;4.30;;;;;;;;;;5031674;28;20049;-68
2022/06/14 02:07:02;;;;;;;6.35;4.43;;;;;;;;;;5039723;28;20048;-68
2022/06/14 02:09:37;;;;;;;9.40;4.43;;;;;;;;;;5034518;28;20060;-68
2022/06/14 02:12:04;;;;;;;8.57;5.80;;;;;;;;;;5034777;28;20090;-68
2022/06/14 02:14:39;;;;;;;5.95;4.32;;;;;;;;;;5059288;28;20052;-68
2022/06/14 02:17:12;;;;;;;5.10;3.85;;;;;;;;;;5043716;28;20045;-68
2022/06/14 02:19:53;;;;;;;8.75;4.53;;;;;;;;;;5057984;28;20048;-68
2022/06/14 02:22:24;;;;;;;8.52;4.13;;;;;;;;;;5052822;28;20072;-68
2022/06/14 02:24:52;;;;;;;11.32;4.78;;;;;;;;;;5051897;28;20492;-67
2022/06/14 02:27:27;;;;;;;5.28;4.00;;;;;;;;;;5050385;28;20123;-68
2022/06/14 02:29:59;;;;;;;6.63;4.35;;;;;;;;;;5050815;28;20459;-68
2022/06/14 02:32:36;;;;;;;6.90;4.17;;;;;;;;;;5050661;28;20487;-68
2022/06/14 02:35:14;;;;;;;7.22;5.00;;;;;;;;;;5035094;28;20310;-68
2022/06/14 02:37:45;;;;;;;9.20;4.20;;;;;;;;;;5034227;28;20049;-68
2022/06/14 02:40:21;;;;;;;6.03;4.35;;;;;;;;;;5034043;28;20056;-68
2022/06/14 02:42:49;;;;;;;7.35;4.72;;;;;;;;;;5055059;28;20099;-68
2022/06/14 02:45:30;;;;;;;6.95;4.78;;;;;;;;;;5054436;28;20052;-69
2022/06/14 02:48:01;;;;;;;7.32;4.22;;;;;;;;;;5038154;28;20046;-68
2022/06/14 02:50:46;;;;;;;7.15;4.18;;;;;;;;;;5018201;28;20419;-68
2022/06/14 02:53:36;;;;;;;8.32;4.80;;;;;;;;;;5034766;28;20045;-68
2022/06/14 02:56:12;;;;;;;10.48;4.85;;;;;;;;;;5034465;28;20128;-68
2022/06/14 02:59:08;;;;;;;7.97;4.75;;;;;;;;;;5020362;28;20049;-67
2022/06/14 03:01:59;;;;;;;7.68;4.93;;;;;;;;;;5034987;28;20045;-68
2022/06/14 03:04:27;;;;;;;6.07;4.43;;;;;;;;;;5033175;28;20049;-68
2022/06/14 03:06:58;;;;;;;7.55;3.95;;;;;;;;;;5033876;28;20057;-68
2022/06/14 03:09:31;;;;;;;7.40;4.55;;;;;;;;;;5035016;28;20428;-68
2022/06/14 03:12:33;;;;;;;8.57;4.85;;;;;;;;;;5017951;28;20045;-68
2022/06/14 03:15:12;;;;;;;8.87;4.97;;;;;;;;;;5012917;28;20439;-68
2022/06/14 03:17:38;;;;;;;8.95;4.43;;;;;;;;;;5047837;28;20295;-68
2022/06/14 03:20:09;;;;;;;9.65;4.95;;;;;;;;;;5054434;28;20152;-68
2022/06/14 03:22:55;;;;;;;8.43;4.53;;;;;;;;;;5054910;28;20048;-68
2022/06/14 03:25:45;;;;;;;8.10;5.05;;;;;;;;;;5076953;22;20072;-67
2022/06/14 03:28:38;;;;;;;7.93;4.60;;;;;;;;;;5071759;28;20112;-66
2022/06/14 03:31:07;;;;;;;8.38;5.45;;;;;;;;;;5068014;28;20041;-67
2022/06/14 03:33:40;;;;;;;7.32;4.90;;;;;;;;;;5093434;28;20060;-66
2022/06/14 03:36:07;;;;;;;7.55;4.70;;;;;;;;;;5073141;28;20045;-66
2022/06/14 03:38:49;;;;;;;8.35;5.28;;;;;;;;;;5062237;28;20049;-66
2022/06/14 03:41:19;;;;;;;7.18;5.43;;;;;;;;;;5075465;28;20084;-66
2022/06/14 03:43:47;;;;;;;8.80;5.05;;;;;;;;;;5041343;28;20073;-67
2022/06/14 03:46:26;;;;;;;6.07;4.55;;;;;;;;;;5040684;28;20504;-66
2022/06/14 03:48:57;;;;;;;6.38;4.65;;;;;;;;;;5044535;28;20115;-66
2022/06/14 03:51:35;;;;;;;6.75;4.78;;;;;;;;;;5042267;28;20064;-65
2022/06/14 03:54:27;;;;;;;5.95;5.07;;;;;;;;;;5034019;28;20103;-65
2022/06/14 03:57:44;;;;;;;10.02;5.40;;;;;;;;;;5034246;28;20049;-66
2022/06/14 04:00:32;;;;;;;6.45;4.57;;;;;;;;;;5021992;28;20049;-66
2022/06/14 04:03:35;;;;;;;8.90;5.40;;;;;;;;;;5034196;28;20056;-65
2022/06/14 04:06:13;;;;;;;5.88;4.68;;;;;;;;;;5022275;28;20060;-66
2022/06/14 04:08:47;;;;;;;7.72;5.18;;;;;;;;;;5054052;28;20107;-67
2022/06/14 04:11:16;;;;;;;9.73;4.90;;;;;;;;;;5052145;28;20512;-67
2022/06/14 04:13:56;;;;;;;10.15;5.25;;;;;;;;;;5068442;28;20459;-67
2022/06/14 04:16:28;;;;;;;7.25;5.35;;;;;;;;;;5065416;28;20058;-67
2022/06/14 04:19:13;;;;;;;7.97;4.38;;;;;;;;;;5064567;28;20077;-67
2022/06/14 04:21:56;;;;;;;10.95;5.25;;;;;;;;;;5047779;28;20049;-67
2022/06/14 04:24:25;;;;;;;10.20;5.38;;;;;;;;;;5048715;28;20053;-67
2022/06/14 04:27:01;;;;;;;10.38;5.05;;;;;;;;;;5047649;28;20060;-68
2022/06/14 04:29:35;;;;;;;9.40;5.15;;;;;;;;;;5045428;28;20045;-66
2022/06/14 04:32:03;;;;;;;7.53;5.30;;;;;;;;;;5062489;28;20057;-67
2022/06/14 04:34:50;;;;;;;7.03;4.57;;;;;;;;;;5045894;28;20050;-67
2022/06/14 04:37:36;;;;;;;9.70;4.80;;;;;;;;;;5048791;28;20056;-67
2022/06/14 04:40:12;;;;;;;9.27;5.18;;;;;;;;;;5064780;28;20049;-67
2022/06/14 04:42:52;;;;;;;7.90;5.03;;;;;;;;;;5047394;28;20079;-67
2022/06/14 04:45:43;;;;;;;7.38;5.03;;;;;;;;;;5049445;28;20049;-67
2022/06/14 04:48:16;;;;;;;10.27;5.30;;;;;;;;;;5049488;28;20060;-66
2022/06/14 04:50:51;;;;;;;8.00;5.05;;;;;;;;;;5042991;28;20080;-68
2022/06/14 04:53:27;;;;;;;10.63;4.80;;;;;;;;;;5039551;28;20520;-67
2022/06/14 04:56:02;;;;;;;7.35;4.65;;;;;;;;;;5039198;28;20045;-67
2022/06/14 04:58:41;;;;;;;7.65;4.55;;;;;;;;;;5061433;28;20111;-67
2022/06/14 05:01:13;;;;;;;6.65;4.75;;;;;;;;;;5062623;28;20515;-66
2022/06/14 05:03:44;;;;;;;9.77;5.60;;;;;;;;;;5079712;28;20072;-67
2022/06/14 05:06:13;;;;;;;8.20;5.07;;;;;;;;;;5062337;28;20049;-66
2022/06/14 05:08:56;;;;;;;6.22;4.90;;;;;;;;;;5051571;28;20491;-66
2022/06/14 05:11:37;;;;;;;9.32;5.45;;;;;;;;;;5066214;28;20094;-66
2022/06/14 05:14:09;;;;;;;7.47;4.78;;;;;;;;;;5051008;28;20095;-66
2022/06/14 05:16:51;;;;;;;6.25;5.50;;;;;;;;;;5047433;28;20053;-67
2022/06/14 05:19:23;;;;;;;11.27;5.60;;;;;;;;;;5031249;28;20424;-66
2022/06/14 05:22:18;;;;;;;9.55;5.50;;;;;;;;;;5034642;28;20045;-65
2022/06/14 05:24:45;;;;;;;9.30;5.22;;;;;;;;;;5036746;28;20167;-65
2022/06/14 05:27:47;;;;;;;17.00;6.85;;;;;;;;;;5039692;28;20053;-65
2022/06/14 05:30:32;;;;;;;8.02;4.80;;;;;;;;;;5035094;28;20049;-68
2022/06/14 05:33:20;;;;;;;7.65;5.10;;;;;;;;;;5030147;28;20057;-67
2022/06/14 05:36:07;;;;;;;10.18;5.88;;;;;;;;;;5030329;28;20053;-66
2022/06/14 05:38:51;;;;;;;12.88;6.18;;;;;;;;;;5013090;28;20056;-65
2022/06/14 05:41:41;;;;;;;12.45;5.60;;;;;;;;;;5030131;28;20045;-66
2022/06/14 05:44:19;;;;;;;8.82;5.65;;;;;;;;;;5028334;28;20452;-66
2022/06/14 05:46:51;;;;;;;17.88;6.68;;;;;;;;;;5017258;28;20045;-66
2022/06/14 05:49:24;;;;;;;12.00;6.38;;;;;;;;;;5039355;28;20053;-66
2022/06/14 05:52:03;;;;;;;16.23;6.28;;;;;;;;;;5028851;28;20045;-66
2022/06/14 05:54:32;;;;;;;10.27;6.10;;;;;;;;;;5028866;28;20412;-67
2022/06/14 05:57:03;;;;;;;9.75;5.50;;;;;;;;;;5012645;28;20134;-67
2022/06/14 05:59:50;;;;;;;8.68;5.38;;;;;;;;;;5028884;28;20112;-66
2022/06/14 06:02:20;;;;;;;10.10;5.72;;;;;;;;;;5028585;28;20057;-66
2022/06/14 06:04:54;;;;;;;9.27;5.53;;;;;;;;;;5028426;28;20080;-66
2022/06/14 06:07:31;;;;;;;8.65;5.90;;;;;;;;;;5023630;28;20053;-66
2022/06/14 06:10:00;;;;;;;10.23;6.05;;;;;;;;;;5048426;28;20041;-66
2022/06/14 06:12:35;;;;;;;10.27;5.90;;;;;;;;;;5064442;28;20053;-66
2022/06/14 06:15:07;;;;;;;16.23;5.55;;;;;;;;;;5064393;28;20049;-65
2022/06/14 06:17:41;;;;;;;12.73;6.10;;;;;;;;;;5040602;28;20554;-65
2022/06/14 06:20:17;;;;;;;14.25;5.75;;;;;;;;;;5012585;28;20103;-66
2022/06/14 06:22:47;;;;;;;8.50;5.50;;;;;;;;;;5028290;28;20107;-65
2022/06/14 06:25:19;;;;;;;10.45;5.28;;;;;;;;;;5029400;28;20050;-63
2022/06/14 06:27:56;;;;;;;12.60;4.57;;;;;;;;;;5024015;28;20060;-63
2022/06/14 06:30:47;;;;;;;6.90;4.25;;;;;;;;;;5021423;28;20412;-64
2022/06/14 06:33:14;;;;;;;10.70;4.50;;;;;;;;;;4999417;28;20045;-64
2022/06/14 06:35:53;;;;;;;8.73;4.35;;;;;;;;;;5019334;28;20076;-66
2022/06/14 06:38:41;;;;;;;13.13;4.40;;;;;;;;;;5014788;28;20300;-70
2022/06/14 06:44:06;;;;;;;11.07;5.03;;;;;;;;;;5021350;28;20525;-72
2022/06/14 06:46:37;;;;;;;9.98;4.78;;;;;;;;;;5000472;28;20112;-71
2022/06/14 06:49:05;;;;;;;9.70;5.15;;;;;;;;;;5015815;28;20490;-65
2022/06/14 06:51:37;;;;;;;10.55;4.70;;;;;;;;;;5002379;28;20046;-72
2022/06/14 06:54:07;;;;;;;;;;;;;;;;;;5023477;28;20099;-64
2022/06/14 06:56:37;;;;;;;10.57;4.57;;;;;;;;;;5016218;28;19921;-64
2022/06/14 06:59:38;;;;;;;12.38;4.93;;;;;;;;;;5007081;28;20053;-64
2022/06/14 07:02:19;;;;;;;7.90;4.65;;;;;;;;;;4991191;28;20100;-61
2022/06/14 07:07:40;;;;;;;9.65;4.82;;;;;;;;;;5022730;28;20100;-70
2022/06/14 07:10:12;;;;;;;10.10;4.85;;;;;;;;;;5021209;28;20463;-73
2022/06/14 07:12:54;;;;;;;12.00;4.93;;;;;;;;;;5016113;28;20056;-69
2022/06/14 07:15:30;;;;;;;9.88;4.57;;;;;;;;;;5019691;28;20061;-71
2022/06/14 07:18:03;;;;;;;7.45;4.57;;;;;;;;;;5016767;28;20049;-71
2022/06/14 07:20:51;;;;;;;7.68;3.85;;;;;;;;;;5017055;28;20107;-72
2022/06/14 07:23:24;;;;;;;12.27;5.00;;;;;;;;;;5017053;28;20061;-70
2022/06/14 07:26:12;;;;;;;9.55;4.30;;;;;;;;;;5021034;28;20053;-69
2022/06/14 07:28:48;;;;;;;9.50;3.72;;;;;;;;;;5027235;28;20064;-62
2022/06/14 07:31:45;;;;;;;8.90;3.78;;;;;;;;;;5020986;28;20050;-63
2022/06/14 07:34:11;;;;;;;8.52;4.05;;;;;;;;;;5008033;28;20465;-63
2022/06/14 07:37:17;;;;;;;7.80;4.07;;;;;;;;;;5019474;28;20500;-63
2022/06/14 07:40:04;;;;;;;7.32;4.18;;;;;;;;;;5019508;28;20070;-61
2022/06/14 07:42:39;;;;;;;6.30;4.00;;;;;;;;;;5017129;28;20508;-63
2022/06/14 07:45:22;;;;;;;5.75;3.65;;;;;;;;;;5004184;28;20096;-63
2022/06/14 07:47:52;;;;;;;6.30;3.70;;;;;;;;;;5010830;28;20153;-62
2022/06/14 07:51:07;;;;;;;9.15;4.07;;;;;;;;;;5018877;28;20405;-64
2022/06/14 07:53:43;;;;;;;6.35;3.90;;;;;;;;;;5016603;28;20501;-63
2022/06/14 07:56:15;;;;;;;7.60;4.07;;;;;;;;;;5018431;28;20058;-63
2022/06/14 07:58:45;;;;;;;7.07;3.90;;;;;;;;;;5016175;28;20050;-63
2022/06/14 08:01:20;;;;;;;6.07;4.30;;;;;;;;;;5001538;28;20463;-62
2022/06/14 08:04:02;;;;;;;11.57;4.78;;;;;;;;;;5001626;28;20087;-63
2022/06/14 08:06:38;;;;;;;5.82;3.80;;;;;;;;;;5022423;28;20041;-66
2022/06/14 08:09:14;;;;;;;7.25;4.25;;;;;;;;;;5007038;28;20104;-64
2022/06/14 08:11:55;;;;;;;9.55;4.05;;;;;;;;;;5002025;28;20054;-62
2022/06/14 08:15:10;;;;;;;7.50;4.32;;;;;;;;;;5022368;28;20045;-62
2022/06/14 08:18:01;;;;;;;7.88;4.00;;;;;;;;;;5015728;28;20054;-63
2022/06/14 08:20:39;;;;;;;5.38;3.60;;;;;;;;;;5019313;28;20056;-63
2022/06/14 08:23:10;;;;;;;6.03;4.00;;;;;;;;;;5020422;28;20045;-65
2022/06/14 08:25:40;;;;;;;8.98;4.18;;;;;;;;;;5020845;28;20106;-65
2022/06/14 08:28:15;;;;;;;7.88;3.80;;;;;;;;;;5020149;28;20496;-63
2022/06/14 08:30:53;;;;;;;10.50;4.38;;;;;;;;;;5019220;28;20049;-68
2022/06/14 08:33:27;;;;;;;5.78;4.30;;;;;;;;;;5021274;28;20103;-73
2022/06/14 08:35:56;;;;;;;7.55;3.67;;;;;;;;;;5006741;28;20065;-75
2022/06/14 08:38:33;;;;;;;6.45;3.40;;;;;;;;;;5022753;28;20049;-75
2022/06/14 08:41:11;;;;;;;11.10;4.00;;;;;;;;;;5020912;28;20057;-73
2022/06/14 08:43:50;;;;;;;11.13;4.05;;;;;;;;;;5018706;28;20101;-71
2022/06/14 08:46:29;;;;;;;9.15;4.45;;;;;;;;;;5004089;28;20100;-76
2022/06/14 08:49:19;;;;;;;7.97;3.70;;;;;;;;;;4997894;28;20103;-73
2022/06/14 08:51:59;;;;;;;6.68;2.90;;;;;;;;;;5006221;28;20584;-72
2022/06/14 08:54:28;;;;;;;5.35;3.42;;;;;;;;;;5019517;28;20042;-73
2022/06/14 08:57:06;;;;;;;5.97;3.70;;;;;;;;;;5018056;28;20046;-72
2022/06/14 09:00:05;;;;;;;6.68;3.30;;;;;;;;;;5016706;28;20104;-74
2022/06/14 09:03:04;;;;;;;5.47;3.60;;;;;;;;;;4993224;28;20049;-63
2022/06/14 09:05:58;;;;;;;7.93;3.95;;;;;;;;;;5022749;28;20115;-64
2022/06/14 09:08:51;;;;;;;7.43;3.97;;;;;;;;;;5021511;28;20057;-63
2022/06/14 09:11:37;;;;;;;7.30;4.20;;;;;;;;;;5019131;28;20421;-69
2022/06/14 09:14:10;;;;;;;6.43;3.60;;;;;;;;;;5019119;28;20446;-64
2022/06/14 09:17:02;;;;;;;6.78;3.22;;;;;;;;;;5020627;28;20552;-74
2022/06/14 09:20:30;;;;;;;7.57;3.63;;;;;;;;;;5019639;28;20053;-74
2022/06/14 09:23:11;;;;;;;5.03;3.53;;;;;;;;;;5015929;28;20060;-72
2022/06/14 09:25:57;;;;;;;6.05;2.97;;;;;;;;;;5024164;28;20084;-75
2022/06/14 09:28:29;;;;;;;5.57;3.45;;;;;;;;;;5020629;28;20092;-74
2022/06/14 09:31:22;;;;;;;6.25;3.33;;;;;;;;;;5016700;28;20065;-73
2022/06/14 09:34:27;;;;;;;5.28;3.13;;;;;;;;;;5014543;28;20076;-71
2022/06/14 09:37:09;;;;;;;7.25;3.10;;;;;;;;;;5019289;28;20050;-73
2022/06/14 09:39:39;;;;;;;;;;;;;;;;;;5018362;28;20129;-72
2022/06/14 09:42:43;;;;;;;3.92;3.00;;;;;;;;;;5018921;28;19924;-73
2022/06/14 09:45:13;;;;;;;5.43;3.00;;;;;;;;;;5020609;28;20049;-72
2022/06/14 09:47:45;;;;;;;7.95;2.75;;;;;;;;;;5021357;28;20559;-72
2022/06/14 09:50:38;;;;;;;4.50;3.08;;;;;;;;;;5016911;28;20464;-72
2022/06/14 09:53:33;;;;;;;4.75;2.72;;;;;;;;;;5018804;28;20053;-72
2022/06/14 09:56:27;;;;;;;6.53;3.20;;;;;;;;;;5026345;28;20095;-75
2022/06/14 09:59:28;;;;;;;6.20;2.60;;;;;;;;;;5019543;28;20053;-75
2022/06/14 10:01:55;;;;;;;7.57;3.35;;;;;;;;;;5018626;28;20076;-74
2022/06/14 10:04:38;;;;;;;5.13;2.65;;;;;;;;;;5018594;28;20049;-74
2022/06/14 10:07:21;;;;;;;6.75;2.88;;;;;;;;;;5019863;28;20050;-65
2022/06/14 10:10:03;;;;;;;6.53;3.42;;;;;;;;;;5016241;28;20053;-65
2022/06/14 10:13:02;;;;;;;6.90;3.40;;;;;;;;;;5027847;28;20049;-65
2022/06/14 10:15:54;;;;;;;6.45;2.85;;;;;;;;;;5037809;28;20400;-65
2022/06/14 10:18:33;;;;;;;7.28;3.60;;;;;;;;;;5019581;28;20049;-65
2022/06/14 10:21:03;;;;;;;4.78;2.75;;;;;;;;;;5020466;28;21383;-65
2022/06/14 10:23:39;;;;;;;5.30;3.00;;;;;;;;;;5008803;28;20045;-64
2022/06/14 10:29:33;;;;;;;5.80;3.15;;;;;;;;;;5018699;28;20048;-64
2022/06/14 10:32:21;;;;;;;7.07;2.97;;;;;;;;;;5021497;28;20217;-64
2022/06/14 10:34:57;;;;;;;7.38;2.63;;;;;;;;;;5023329;28;20041;-64
2022/06/14 10:37:51;;;;;;;4.22;2.47;;;;;;;;;;5024602;28;20123;-64
2022/06/14 10:40:36;;;;;;;3.92;2.47;;;;;;;;;;5019372;28;20115;-64
2022/06/14 10:43:10;;;;;;;4.85;2.92;;;;;;;;;;5024923;28;20115;-64
2022/06/14 10:45:47;;;;;;;6.38;2.55;;;;;;;;;;5024777;28;20057;-64
2022/06/14 10:48:32;;;;;;;5.63;2.80;;;;;;;;;;5020026;28;20050;-64
2022/06/14 10:51:02;;;;;;;6.30;2.97;;;;;;;;;;5020139;28;20473;-64
2022/06/14 10:53:58;;;;;;;4.57;2.60;;;;;;;;;;5022548;28;20090;-64
2022/06/14 10:56:36;;;;;;;5.20;2.53;;;;;;;;;;5017593;28;20497;-64
2022/06/14 10:59:37;;;;;;;4.00;2.33;;;;;;;;;;5016890;28;20046;-64
2022/06/14 11:02:08;;;;;;;5.90;3.27;;;;;;;;;;5018286;28;20041;-64
2022/06/14 11:04:35;;;;;;;4.03;2.10;;;;;;;;;;5022940;28;20297;-69
2022/06/14 11:07:26;;;;;;;6.53;2.60;;;;;;;;;;5026364;28;20288;-71
2022/06/14 11:10:11;;;;;;;6.00;2.50;;;;;;;;;;5011816;28;20072;-71
2022/06/14 11:13:04;;;;;;;6.57;2.70;;;;;;;;;;5022574;28;20058;-71
2022/06/14 11:15:45;;;;;;;3.75;2.03;;;;;;;;;;5020548;28;20058;-71
2022/06/14 11:18:39;;;;;;;4.20;2.40;;;;;;;;;;5018618;28;20057;-72
2022/06/14 11:21:41;;;;;;;8.05;2.47;;;;;;;;;;5020957;28;20061;-71
2022/06/14 11:24:20;;;;;;;7.00;2.85;;;;;;;;;;4961787;28;20466;-71
2022/06/14 11:27:03;;;;;;;6.70;2.08;;;;;;;;;;5015111;28;20045;-72
2022/06/14 11:29:48;;;;;;;6.45;2.53;;;;;;;;;;5025085;28;20049;-74
2022/06/14 11:32:26;;;;;;;4.68;2.30;;;;;;;;;;5026550;28;20053;-72
2022/06/14 11:35:05;;;;;;;4.43;2.33;;;;;;;;;;5004024;28;20046;-74
2022/06/14 11:37:44;;;;;;;3.50;2.33;;;;;;;;;;5005528;28;20049;-71
2022/06/14 11:40:13;;;;;;;5.57;2.30;;;;;;;;;;5022799;28;20566;-71
2022/06/14 11:42:55;;;;;;;6.40;2.58;;;;;;;;;;5019575;28;20065;-71
2022/06/14 11:45:25;;;;;;;5.20;2.30;;;;;;;;;;5018418;28;20060;-71
2022/06/14 11:47:56;;;;;;;5.82;2.40;;;;;;;;;;5021016;28;20072;-70
2022/06/14 11:50:38;;;;;;;5.22;2.20;;;;;;;;;;5018751;28;20520;-71
2022/06/14 11:53:10;;;;;;;5.60;2.50;;;;;;;;;;5018966;28;20092;-70
2022/06/14 11:55:42;;;;;;;;;;;;;;;;;;5019352;28;20053;-71
2022/06/14 11:58:22;;;;;;;5.90;2.63;;;;;;;;;;5035076;28;19979;-71
2022/06/14 12:01:16;;;;;;;6.10;2.03;;;;;;;;;;5022154;28;20407;-71
2022/06/14 12:03:58;;;;;;;;;;;;;;;;;;4998400;28;20049;-72
2022/06/14 12:06:30;;;;;;;5.70;2.65;;;;;;;;;;5022659;28;20288;-73
2022/06/14 12:09:35;;;;;;;3.70;1.97;;;;;;;;;;5029297;28;20056;-64
2022/06/14 12:12:19;;;;;;;4.13;2.03;;;;;;;;;;4980044;28;20363;-64
2022/06/14 12:14:58;;;;;;;4.80;1.98;;;;;;;;;;5022624;28;20046;-64
2022/06/14 12:17:29;;;;;;;3.03;2.05;;;;;;;;;;5023155;28;20050;-64
2022/06/14 12:20:14;;;;;;;4.07;1.95;;;;;;;;;;5018714;28;20109;-64
2022/06/14 12:22:53;;;;;;;5.53;2.40;;;;;;;;;;5024818;28;20041;-64
2022/06/14 12:28:30;;;;;;;5.43;2.40;;;;;;;;;;5007808;28;20049;-62
2022/06/14 12:31:02;;;;;;;4.80;2.00;;;;;;;;;;5016046;28;20061;-62
2022/06/14 12:33:32;;;;;;;3.47;2.05;;;;;;;;;;5001403;28;20056;-62
2022/06/14 12:36:20;;;;;;;4.20;1.90;;;;;;;;;;5001149;28;20049;-64
2022/06/14 12:38:48;;;;;;;5.43;2.17;;;;;;;;;;5013444;28;20050;-64
2022/06/14 12:41:27;;;;;;;4.88;2.15;;;;;;;;;;5006376;28;20078;-65
2022/06/14 12:44:10;;;;;;;4.00;1.83;;;;;;;;;;5019448;28;20053;-65
2022/06/14 12:46:40;;;;;;;4.00;2.28;;;;;;;;;;5024925;28;20504;-65
2022/06/14 12:49:20;;;;;;;3.92;2.13;;;;;;;;;;5038553;28;20133;-65
2022/06/14 12:52:06;;;;;;;6.53;2.55;;;;;;;;;;5024072;28;20099;-65
2022/06/14 12:54:57;;;;;;;3.42;1.70;;;;;;;;;;5022149;28;20042;-65
2022/06/14 12:57:59;;;;;;;5.72;1.90;;;;;;;;;;5023724;28;20049;-65
2022/06/14 13:00:32;;;;;;;4.75;2.28;;;;;;;;;;5020033;28;20041;-65
2022/06/14 13:03:33;;;;;;;5.43;2.08;;;;;;;;;;5019317;28;20049;-65
2022/06/14 13:06:25;;;;;;;5.75;2.40;;;;;;;;;;5020503;28;20077;-65
2022/06/14 13:09:18;;;;;;;3.65;1.92;;;;;;;;;;5024489;28;20500;-65
2022/06/14 13:12:16;;;;;;;3.95;2.05;;;;;;;;;;5038140;28;20049;-65
2022/06/14 13:15:12;;;;;;;2.83;2.00;;;;;;;;;;4954825;28;20515;-65
2022/06/14 13:18:06;;;;;;;3.38;1.90;;;;;;;;;;5006401;28;20050;-66
2022/06/14 13:20:45;;;;;;;3.08;1.60;;;;;;;;;;5021169;28;20049;-65
2022/06/14 13:23:28;;;;;;;2.33;1.85;;;;;;;;;;5017555;28;20053;-65
2022/06/14 13:26:05;;;;;;;2.88;1.77;;;;;;;;;;5016079;28;20069;-65
2022/06/14 13:28:41;;;;;;;2.50;1.77;;;;;;;;;;5020858;28;20526;-65
2022/06/14 13:31:58;;;;;;;4.68;1.52;;;;;;;;;;5021586;28;20108;-65
2022/06/14 13:35:02;;;;;;;2.58;1.73;;;;;;;;;;5010745;28;20508;-65
2022/06/14 13:37:38;;;;;;;3.00;2.00;;;;;;;;;;5017398;28;20050;-65
2022/06/14 13:40:30;;;;;;;4.72;2.10;;;;;;;;;;5020796;28;20049;-65
2022/06/14 13:43:18;;;;;;;3.30;2.00;;;;;;;;;;5019454;28;20336;-65
2022/06/14 13:46:20;;;;;;;3.67;2.00;;;;;;;;;;5020027;28;20160;-65
2022/06/14 13:49:15;;;;;;;2.20;1.70;;;;;;;;;;4983452;28;20532;-65
2022/06/14 13:51:48;;;;;;;3.53;2.00;;;;;;;;;;5019044;28;20057;-65
2022/06/14 13:54:35;;;;;;;3.20;1.45;;;;;;;;;;5017825;28;20050;-65
2022/06/14 13:57:11;;;;;;;2.30;1.65;;;;;;;;;;5019940;28;20064;-65
2022/06/14 13:59:43;;;;;;;2.75;1.52;;;;;;;;;;5016977;28;20053;-66
2022/06/14 14:02:35;;;;;;;3.72;1.75;;;;;;;;;;5004237;28;20057;-65
2022/06/14 14:05:13;;;;;;;5.22;1.98;;;;;;;;;;5020414;28;20046;-65
2022/06/14 14:08:24;;;;;;;2.58;1.70;;;;;;;;;;5020923;28;20045;-66
2022/06/14 14:10:55;;;;;;;3.35;2.10;;;;;;;;;;5020176;28;20452;-65
2022/06/14 14:13:37;;;;;;;2.63;1.65;;;;;;;;;;5017319;28;20127;-65
2022/06/14 14:16:13;;;;;;;3.10;1.63;;;;;;;;;;5017999;28;20046;-65
2022/06/14 14:18:47;;;;;;;4.25;1.98;;;;;;;;;;5005657;28;20087;-65
2022/06/14 14:21:47;;;;;;;3.35;2.10;;;;;;;;;;5016105;28;20137;-65
2022/06/14 14:24:40;;;;;;;2.22;1.73;;;;;;;;;;5007341;28;20049;-65
2022/06/14 14:27:28;;;;;;;2.47;1.70;;;;;;;;;;5002828;28;20045;-65
2022/06/14 14:30:24;;;;;;;2.90;1.77;;;;;;;;;;5005613;28;20045;-65
2022/06/14 14:33:05;;;;;;;3.60;1.83;;;;;;;;;;5017367;28;20130;-67
2022/06/14 14:35:45;;;;;;;2.72;1.60;;;;;;;;;;5015807;28;20053;-67
2022/06/14 14:38:55;;;;;;;3.83;1.92;;;;;;;;;;5007566;28;20119;-69
2022/06/14 14:41:41;;;;;;;2.67;1.88;;;;;;;;;;5017525;28;20050;-68
2022/06/14 14:44:17;;;;;;;4.07;2.30;;;;;;;;;;5007065;28;20054;-68
2022/06/14 14:46:51;;;;;;;3.08;2.22;;;;;;;;;;5021850;28;20048;-68
2022/06/14 14:49:42;;;;;;;2.05;1.80;;;;;;;;;;5004548;28;20111;-68
2022/06/14 14:52:16;;;;;;;4.10;2.30;;;;;;;;;;5016353;28;20057;-68
2022/06/14 14:54:49;;;;;;;4.05;2.20;;;;;;;;;;5019696;28;20057;-68
2022/06/14 14:57:48;;;;;;;4.00;2.22;;;;;;;;;;5024905;28;20050;-68
2022/06/14 15:05:20;;;;;;;3.20;2.05;;;;;;;;;;5021139;28;20053;-68
2022/06/14 15:06:15;;;;;;;4.15;2.08;;;;;;;;;;5021113;28;20517;-68
2022/06/14 15:08:48;;;;;;;3.85;2.42;;;;;;;;;;5004509;28;20052;-68
2022/06/14 15:11:15;;;;;;;3.75;2.53;;;;;;;;;;5006310;28;20056;-68
2022/06/14 15:13:52;;;;;;;3.65;2.22;;;;;;;;;;5024327;28;20046;-68
2022/06/14 15:16:26;;;;;;;6.25;2.30;;;;;;;;;;5020837;28;20046;-68
2022/06/14 15:21:51;;;;;;;4.05;2.83;;;;;;;;;;5009770;28;20112;-67
2022/06/14 15:24:41;;;;;;;6.35;2.55;;;;;;;;;;5011208;28;20124;-66
2022/06/14 15:27:08;;;;;;;4.38;2.80;;;;;;;;;;5064043;23;20102;-65
2022/06/14 15:29:36;;;;;;;14.73;7.78;;;;;;;;;;5047980;28;20040;-75
2022/06/14 15:32:12;;;;;;;8.13;4.47;;;;;;;;;;5063763;28;20525;-73
2022/06/14 15:34:42;;;;;;;5.18;2.97;;;;;;;;;;5065124;28;20056;-73
2022/06/14 15:37:43;;;;;;;6.10;3.80;;;;;;;;;;5059468;28;20044;-70
2022/06/14 15:40:09;;;;;;;5.15;2.30;;;;;;;;;;5063603;28;20106;-71
2022/06/14 15:42:48;;;;;;;3.63;2.38;;;;;;;;;;5064957;28;20124;-72
2022/06/14 15:45:29;;;;;;;3.63;2.45;;;;;;;;;;5057780;28;20458;-68
2022/06/14 15:48:06;;;;;;;2.75;2.13;;;;;;;;;;5061404;28;20123;-69
2022/06/14 15:50:35;;;;;;;4.55;2.30;;;;;;;;;;5059627;28;20056;-69
2022/06/14 15:53:05;;;;;;;5.13;2.63;;;;;;;;;;5062986;28;20063;-70
2022/06/14 15:55:34;;;;;;;8.07;3.45;;;;;;;;;;5058891;28;20512;-69
2022/06/14 15:58:18;;;;;;;3.17;2.38;;;;;;;;;;5058909;28;20060;-69
2022/06/14 16:01:02;;;;;;;5.72;2.70;;;;;;;;;;5056709;28;20049;-70
2022/06/14 16:03:36;;;;;;;3.88;2.40;;;;;;;;;;5055779;28;20515;-70
2022/06/14 16:06:06;;;;;;;4.40;2.55;;;;;;;;;;5041115;28;20044;-70
2022/06/14 16:08:36;;;;;;;3.78;1.88;;;;;;;;;;5060505;28;20063;-70
2022/06/14 16:11:09;;;;;;;4.43;2.33;;;;;;;;;;5059837;28;20056;-70
2022/06/14 16:13:46;;;;;;;5.90;2.63;;;;;;;;;;5062703;28;20041;-70
2022/06/14 16:17:02;;;;;;;5.10;2.50;;;;;;;;;;5022197;28;20045;-70
2022/06/14 16:19:35;;;;;;;9.35;4.43;;;;;;;;;;5029316;28;20048;-70
2022/06/14 16:22:02;;;;;;;6.50;2.50;;;;;;;;;;5063425;28;20054;-69